Time,TemperatureF,DewpointF,PressureIn,WindDirection,WindDirectionDegrees,WindSpeedMPH,WindSpeedGustMPH,Humidity,HourlyPrecipIn,Conditions,Clouds,dailyrainin,SolarRadiationWatts/m^2,SoftwareType,DateUTC
2013-12-26 00:05:00,51.5,40.0,30.27,NE,45,0.0,0.0,66,0.00,,,0.00,0,weatherlink.com 1.10,2013-12-26 08:05:00,
2013-12-26 00:20:00,51.1,40.0,30.28,NE,45,0.0,1.0,66,0.00,,,0.00,0,weatherlink.com 1.10,2013-12-26 08:20:00,
2013-12-26 00:35:00,51.1,41.0,30.27,West,278,2.0,6.0,69,0.00,,,0.00,0,weatherlink.com 1.10,2013-12-26 08:35:00,
2013-12-26 00:50:00,51.8,42.0,30.27,WNW,298,0.0,4.0,69,0.00,,,0.00,0,weatherlink.com 1.10,2013-12-26 08:50:00,
2013-12-26 01:05:00,51.9,42.0,30.26,NNW,339,1.0,3.0,69,0.00,,,0.00,0,weatherlink.com 1.10,2013-12-26 09:05:00,
2013-12-26 01:20:00,51.9,42.0,30.26,NW,313,0.0,3.0,69,0.00,,,0.00,0,weatherlink.com 1.10,2013-12-26 09:20:00,
2013-12-26 01:35:00,51.8,42.0,30.26,NW,308,0.0,2.0,69,0.00,,,0.00,0,weatherlink.com 1.10,2013-12-26 09:35:00,
2013-12-26 01:50:00,51.6,42.0,30.26,North,7,0.0,1.0,69,0.00,,,0.00,0,weatherlink.com 1.10,2013-12-26 09:50:00,
2013-12-26 02:05:00,51.2,41.0,30.26,North,7,0.0,1.0,69,0.00,,,0.00,0,weatherlink.com 1.10,2013-12-26 10:05:00,
2013-12-26 02:20:00,50.7,41.0,30.27,North,7,0.0,0.0,69,0.00,,,0.00,0,weatherlink.com 1.10,2013-12-26 10:20:00,
2013-12-26 02:35:00,50.1,40.0,30.26,North,7,0.0,0.0,69,0.00,,,0.00,0,weatherlink.com 1.10,2013-12-26 10:35:00,
2013-12-26 02:50:00,49.4,40.0,30.26,North,7,0.0,1.0,70,0.00,,,0.00,0,weatherlink.com 1.10,2013-12-26 10:50:00,
2013-12-26 03:05:00,49.5,41.0,30.27,NW,325,0.0,3.0,72,0.00,,,0.00,0,weatherlink.com 1.10,2013-12-26 11:05:00,
2013-12-26 03:20:00,49.8,41.0,30.27,NNW,337,0.0,2.0,72,0.00,,,0.00,0,weatherlink.com 1.10,2013-12-26 11:20:00,
2013-12-26 03:35:00,49.7,41.0,30.26,NNW,337,0.0,0.0,72,0.00,,,0.00,0,weatherlink.com 1.10,2013-12-26 11:35:00,
2013-12-26 03:50:00,49.1,40.0,30.26,NW,308,0.0,2.0,71,0.00,,,0.00,0,weatherlink.com 1.10,2013-12-26 11:50:00,
2013-12-26 04:05:00,48.6,40.0,30.26,NW,307,0.0,1.0,72,0.00,,,0.00,0,weatherlink.com 1.10,2013-12-26 12:05:00,
2013-12-26 04:20:00,48.1,39.0,30.26,NW,307,0.0,2.0,72,0.00,,,0.00,0,weatherlink.com 1.10,2013-12-26 12:20:00,
2013-12-26 04:35:00,47.8,40.0,30.26,WSW,248,0.0,3.0,73,0.00,,,0.00,0,weatherlink.com 1.10,2013-12-26 12:35:00,
2013-12-26 04:50:00,47.6,39.0,30.26,WSW,248,0.0,0.0,73,0.00,,,0.00,0,weatherlink.com 1.10,2013-12-26 12:50:00,
2013-12-26 05:05:00,47.3,39.0,30.26,WSW,248,0.0,1.0,74,0.00,,,0.00,0,weatherlink.com 1.10,2013-12-26 13:05:00,
2013-12-26 05:20:00,47.1,39.0,30.26,WSW,248,0.0,0.0,74,0.00,,,0.00,0,weatherlink.com 1.10,2013-12-26 13:20:00,
2013-12-26 05:35:00,46.9,39.0,30.26,WSW,248,0.0,1.0,74,0.00,,,0.00,0,weatherlink.com 1.10,2013-12-26 13:35:00,
2013-12-26 05:50:00,46.8,39.0,30.27,WSW,248,0.0,0.0,75,0.00,,,0.00,0,weatherlink.com 1.10,2013-12-26 13:50:00,
2013-12-26 06:05:00,46.6,39.0,30.27,WSW,248,0.0,0.0,75,0.00,,,0.00,0,weatherlink.com 1.10,2013-12-26 14:05:00,
2013-12-26 06:20:00,46.4,39.0,30.27,WSW,248,0.0,0.0,76,0.00,,,0.00,0,weatherlink.com 1.10,2013-12-26 14:20:00,
2013-12-26 06:35:00,46.4,40.0,30.27,WSW,248,0.0,0.0,77,0.00,,,0.00,0,weatherlink.com 1.10,2013-12-26 14:35:00,
2013-12-26 06:50:00,46.4,40.0,30.27,WSW,248,0.0,0.0,77,0.00,,,0.00,0,weatherlink.com 1.10,2013-12-26 14:50:00,
2013-12-26 07:05:00,46.5,40.0,30.27,WSW,248,2.0,2.0,79,0.00,,,0.00,0,weatherlink.com 1.10,2013-12-26 15:05:00,
2013-12-26 07:20:00,-999.0,-99.9,30.27,North,-999,-999.0,-999.0,-999,0.00,,,0.00,,weatherlink.com 1.10,2013-12-26 15:20:00,
2013-12-26 07:35:00,-999.0,-99.9,30.27,North,-999,-999.0,-999.0,-999,0.00,,,0.00,,weatherlink.com 1.10,2013-12-26 15:35:00,
2013-12-26 07:50:00,-999.0,-99.9,30.27,North,-999,-999.0,-999.0,-999,0.00,,,0.00,,weatherlink.com 1.10,2013-12-26 15:50:00,
2013-12-26 08:05:00,-999.0,-99.9,30.27,North,-999,-999.0,-999.0,-999,0.00,,,0.00,,weatherlink.com 1.10,2013-12-26 16:05:00,
2013-12-26 08:20:00,47.4,42.0,30.28,WSW,248,1.0,2.0,82,0.00,,,0.00,116,weatherlink.com 1.10,2013-12-26 16:20:00,
2013-12-26 08:35:00,48.3,43.0,30.28,WSW,248,0.0,1.0,83,0.00,,,0.00,165,weatherlink.com 1.10,2013-12-26 16:35:00,
2013-12-26 08:50:00,49.8,45.0,30.28,WSW,248,0.0,0.0,83,0.00,,,0.00,207,weatherlink.com 1.10,2013-12-26 16:50:00,
2013-12-26 09:05:00,52.3,47.0,30.28,West,270,0.0,3.0,81,0.00,,,0.00,250,weatherlink.com 1.10,2013-12-26 17:05:00,
2013-12-26 09:21:00,54.8,47.0,30.28,SE,141,1.0,3.0,74,0.00,,,0.00,287,weatherlink.com 1.10,2013-12-26 17:21:00,
2013-12-26 09:36:00,56.2,47.0,30.28,East,92,1.0,2.0,70,0.00,,,0.00,320,weatherlink.com 1.10,2013-12-26 17:36:00,
2013-12-26 09:51:00,57.2,46.0,30.28,East,83,1.0,3.0,66,0.00,,,0.00,352,weatherlink.com 1.10,2013-12-26 17:51:00,
2013-12-26 10:06:00,58.0,44.0,30.29,ENE,75,0.0,3.0,61,0.00,,,0.00,381,weatherlink.com 1.10,2013-12-26 18:06:00,
2013-12-26 10:21:00,58.2,43.0,30.29,East,79,2.0,4.0,58,0.00,,,0.00,406,weatherlink.com 1.10,2013-12-26 18:21:00,
2013-12-26 10:36:00,58.7,43.0,30.29,ENE,72,1.0,4.0,56,0.00,,,0.00,429,weatherlink.com 1.10,2013-12-26 18:36:00,
2013-12-26 10:51:00,57.7,42.0,30.28,NE,50,2.0,5.0,57,0.00,,,0.00,448,weatherlink.com 1.10,2013-12-26 18:51:00,
2013-12-26 11:06:00,58.0,42.0,30.28,ENE,62,3.0,4.0,56,0.00,,,0.00,462,weatherlink.com 1.10,2013-12-26 19:06:00,
2013-12-26 11:21:00,58.7,42.0,30.27,ESE,104,1.0,4.0,55,0.00,,,0.00,476,weatherlink.com 1.10,2013-12-26 19:21:00,
2013-12-26 11:36:00,59.8,43.0,30.26,ESE,108,1.0,3.0,54,0.00,,,0.00,483,weatherlink.com 1.10,2013-12-26 19:36:00,
2013-12-26 11:51:00,60.7,43.0,30.25,SSE,167,2.0,5.0,53,0.00,,,0.00,489,weatherlink.com 1.10,2013-12-26 19:51:00,
2013-12-26 12:06:00,61.8,43.0,30.24,East,79,0.0,3.0,50,0.00,,,0.00,489,weatherlink.com 1.10,2013-12-26 20:06:00,
2013-12-26 12:21:00,62.0,42.0,30.24,South,181,1.0,4.0,48,0.00,,,0.00,490,weatherlink.com 1.10,2013-12-26 20:21:00,
2013-12-26 12:36:00,63.0,42.0,30.23,South,185,1.0,3.0,46,0.00,,,0.00,482,weatherlink.com 1.10,2013-12-26 20:36:00,
2013-12-26 12:51:00,65.2,42.0,30.23,South,191,2.0,3.0,43,0.00,,,0.00,473,weatherlink.com 1.10,2013-12-26 20:51:00,
2013-12-26 13:06:00,65.8,43.0,30.22,SSE,168,0.0,2.0,43,0.00,,,0.00,461,weatherlink.com 1.10,2013-12-26 21:06:00,
2013-12-26 13:21:00,67.5,42.0,30.21,SE,124,0.0,3.0,40,0.00,,,0.00,441,weatherlink.com 1.10,2013-12-26 21:21:00,
2013-12-26 13:37:00,66.9,42.0,30.20,ENE,75,0.0,4.0,40,0.00,,,0.00,418,weatherlink.com 1.10,2013-12-26 21:37:00,
2013-12-26 13:52:00,68.3,42.0,30.20,ENE,76,0.0,2.0,38,0.00,,,0.00,390,weatherlink.com 1.10,2013-12-26 21:52:00,
2013-12-26 14:22:00,70.9,39.0,30.20,North,354,1.0,3.0,31,0.00,,,0.00,341,weatherlink.com 1.10,2013-12-26 22:22:00,
2013-12-26 14:37:00,71.3,38.0,30.19,NW,316,1.0,4.0,30,0.00,,,0.00,308,weatherlink.com 1.10,2013-12-26 22:37:00,
2013-12-26 14:52:00,71.4,39.0,30.19,NW,326,0.0,2.0,31,0.00,,,0.00,272,weatherlink.com 1.10,2013-12-26 22:52:00,
2013-12-26 15:07:00,71.7,39.0,30.19,NW,320,0.0,2.0,31,0.00,,,0.00,225,weatherlink.com 1.10,2013-12-26 23:07:00,
2013-12-26 15:22:00,71.5,40.0,30.19,NNW,331,0.0,1.0,32,0.00,,,0.00,176,weatherlink.com 1.10,2013-12-26 23:22:00,
2013-12-26 15:37:00,71.1,40.0,30.19,East,94,0.0,2.0,32,0.00,,,0.00,130,weatherlink.com 1.10,2013-12-26 23:37:00,
2013-12-26 15:52:00,70.4,40.0,30.20,ESE,119,0.0,2.0,33,0.00,,,0.00,86,weatherlink.com 1.10,2013-12-26 23:52:00,
2013-12-26 16:07:00,69.8,40.0,30.20,ESE,120,0.0,1.0,34,0.00,,,0.00,51,weatherlink.com 1.10,2013-12-27 00:07:00,
2013-12-26 16:22:00,67.9,40.0,30.20,ESE,120,0.0,2.0,36,0.00,,,0.00,21,weatherlink.com 1.10,2013-12-27 00:22:00,
2013-12-26 16:37:00,66.0,39.0,30.20,ESE,120,0.0,1.0,37,0.00,,,0.00,12,weatherlink.com 1.10,2013-12-27 00:37:00,
2013-12-26 16:52:00,64.3,39.0,30.20,ESE,120,0.0,1.0,39,0.00,,,0.00,5,weatherlink.com 1.10,2013-12-27 00:52:00,
2013-12-26 17:07:00,63.1,39.0,30.20,ESE,123,0.0,0.0,41,0.00,,,0.00,0,weatherlink.com 1.10,2013-12-27 01:07:00,
2013-12-26 17:22:00,62.1,39.0,30.20,ESE,123,0.0,1.0,42,0.00,,,0.00,0,weatherlink.com 1.10,2013-12-27 01:22:00,
2013-12-26 17:37:00,61.2,38.0,30.20,SE,125,0.0,1.0,43,0.00,,,0.00,0,weatherlink.com 1.10,2013-12-27 01:37:00,
2013-12-26 17:52:00,60.4,38.0,30.20,SE,125,0.0,0.0,44,0.00,,,0.00,0,weatherlink.com 1.10,2013-12-27 01:52:00,
2013-12-26 18:07:00,59.8,38.0,30.20,SE,125,0.0,1.0,44,0.00,,,0.00,0,weatherlink.com 1.10,2013-12-27 02:07:00,
2013-12-26 18:22:00,59.2,38.0,30.21,SE,125,0.0,1.0,45,0.00,,,0.00,0,weatherlink.com 1.10,2013-12-27 02:22:00,
2013-12-26 18:37:00,58.8,37.0,30.21,SE,125,0.0,0.0,45,0.00,,,0.00,0,weatherlink.com 1.10,2013-12-27 02:37:00,
2013-12-26 18:52:00,58.3,37.0,30.21,SE,125,0.0,0.0,45,0.00,,,0.00,0,weatherlink.com 1.10,2013-12-27 02:52:00,
2013-12-26 19:07:00,57.8,37.0,30.21,SE,125,0.0,0.0,46,0.00,,,0.00,0,weatherlink.com 1.10,2013-12-27 03:07:00,
2013-12-26 19:22:00,57.3,38.0,30.22,SE,125,0.0,0.0,48,0.00,,,0.00,0,weatherlink.com 1.10,2013-12-27 03:22:00,
2013-12-26 19:37:00,56.9,38.0,30.22,SE,125,0.0,0.0,50,0.00,,,0.00,0,weatherlink.com 1.10,2013-12-27 03:37:00,
2013-12-26 19:52:00,56.4,38.0,30.22,SE,125,0.0,1.0,51,0.00,,,0.00,0,weatherlink.com 1.10,2013-12-27 03:52:00,
2013-12-26 20:07:00,56.0,38.0,30.22,SE,125,0.0,0.0,51,0.00,,,0.00,0,weatherlink.com 1.10,2013-12-27 04:07:00,
2013-12-26 20:22:00,55.6,38.0,30.22,SE,125,0.0,0.0,53,0.00,,,0.00,0,weatherlink.com 1.10,2013-12-27 04:22:00,
2013-12-26 20:37:00,55.1,39.0,30.23,SE,125,0.0,0.0,54,0.00,,,0.00,0,weatherlink.com 1.10,2013-12-27 04:37:00,
2013-12-26 20:52:00,54.6,39.0,30.23,SE,125,0.0,0.0,56,0.00,,,0.00,0,weatherlink.com 1.10,2013-12-27 04:52:00,
2013-12-26 21:07:00,54.1,39.0,30.23,SE,125,0.0,0.0,57,0.00,,,0.00,0,weatherlink.com 1.10,2013-12-27 05:07:00,
2013-12-26 21:22:00,53.7,39.0,30.22,SE,125,0.0,0.0,58,0.00,,,0.00,0,weatherlink.com 1.10,2013-12-27 05:22:00,
2013-12-26 21:37:00,53.1,39.0,30.23,SE,125,0.0,1.0,59,0.00,,,0.00,0,weatherlink.com 1.10,2013-12-27 05:37:00,
2013-12-26 21:52:00,52.9,39.0,30.23,SE,125,0.0,0.0,59,0.00,,,0.00,0,weatherlink.com 1.10,2013-12-27 05:52:00,
2013-12-26 22:07:00,52.7,39.0,30.23,SE,125,0.0,0.0,60,0.00,,,0.00,0,weatherlink.com 1.10,2013-12-27 06:07:00,
2013-12-26 22:22:00,52.4,39.0,30.23,SE,125,0.0,0.0,61,0.00,,,0.00,0,weatherlink.com 1.10,2013-12-27 06:22:00,
2013-12-26 22:37:00,52.1,39.0,30.23,SE,125,0.0,0.0,61,0.00,,,0.00,0,weatherlink.com 1.10,2013-12-27 06:37:00,
2013-12-26 22:52:00,51.7,39.0,30.23,SE,125,0.0,2.0,63,0.00,,,0.00,0,weatherlink.com 1.10,2013-12-27 06:52:00,
2013-12-26 23:07:00,51.5,39.0,30.23,SE,125,0.0,1.0,63,0.00,,,0.00,0,weatherlink.com 1.10,2013-12-27 07:07:00,
2013-12-26 23:22:00,51.0,40.0,30.23,SE,125,0.0,2.0,66,0.00,,,0.00,0,weatherlink.com 1.10,2013-12-27 07:22:00,
2013-12-26 23:37:00,50.9,40.0,30.23,SE,125,0.0,0.0,66,0.00,,,0.00,0,weatherlink.com 1.10,2013-12-27 07:37:00,
2013-12-26 23:52:00,50.5,40.0,30.24,SE,125,0.0,0.0,67,0.00,,,0.00,0,weatherlink.com 1.10,2013-12-27 07:52:00,